Time;durP1;ratioP1;P1;durP2;ratioP2;P2;SDS_P1;SDS_P2;PMS_P1;PMS_P2;Temp;Humidity;BMP_temperature;BMP_pressure;BME280_temperature;BME280_humidity;BME280_pressure;Samples;Min_cycle;Max_cycle;Signal;HPM_P1;HPM_P2
2024/02/21 00:01:42;;;;;;;21.17;13.90;;;;;;;-6.90;62.39;100684.94;5050237;28;20029;-67
2024/02/21 00:04:08;;;;;;;24.23;14.80;;;;;;;-6.92;62.27;100669.31;5051720;28;20421;-66
2024/02/21 00:06:33;;;;;;;25.55;14.30;;;;;;;-6.93;62.32;100678.84;5051577;28;20071;-64
2024/02/21 00:08:59;;;;;;;26.73;14.07;;;;;;;-7.10;62.24;100652.72;5047340;28;20041;-66
2024/02/21 00:11:24;;;;;;;23.77;14.35;;;;;;;-6.95;62.45;100675.38;5048571;28;20051;-62
2024/02/21 00:13:50;;;;;;;23.55;14.63;;;;;;;-6.91;62.05;100681.47;5051179;28;20317;-66
2024/02/21 00:16:17;;;;;;;28.33;14.98;;;;;;;-6.96;62.64;100671.03;5050926;28;20094;-65
2024/02/21 00:18:43;;;;;;;24.48;14.32;;;;;;;-7.08;62.48;100645.81;5051056;28;20101;-67
2024/02/21 00:21:09;;;;;;;25.15;13.38;;;;;;;-6.88;62.42;100659.75;5051293;28;20120;-67
2024/02/21 00:23:34;;;;;;;26.63;14.20;;;;;;;-6.90;62.66;100674.50;5050987;28;20078;-69
2024/02/21 00:26:00;;;;;;;23.70;14.73;;;;;;;-6.99;62.66;100663.19;5050603;28;20036;-68
2024/02/21 00:28:26;;;;;;;23.95;14.40;;;;;;;-6.94;62.50;100663.25;5050677;27;20048;-64
2024/02/21 00:30:52;;;;;;;30.17;14.80;;;;;;;-6.96;62.39;100657.16;5051171;28;20028;-67
2024/02/21 00:33:19;;;;;;;27.30;15.27;;;;;;;-6.93;62.39;100659.78;5050854;28;20364;-66
2024/02/21 00:35:44;;;;;;;23.92;13.60;;;;;;;-6.84;62.49;100661.53;5050733;28;20059;-67
2024/02/21 00:38:10;;;;;;;23.08;14.27;;;;;;;-6.81;62.57;100653.75;5050840;28;20111;-65
2024/02/21 00:40:35;;;;;;;22.83;15.13;;;;;;;-6.73;62.15;100649.44;5051029;28;20033;-66
2024/02/21 00:43:01;;;;;;;23.00;14.43;;;;;;;-6.64;62.32;100659.00;5050425;28;20041;-67
2024/02/21 00:45:26;;;;;;;25.48;14.70;;;;;;;-6.63;61.53;100640.78;5051166;28;20021;-64
2024/02/21 00:47:52;;;;;;;26.13;15.27;;;;;;;-6.46;61.49;100645.16;5051181;28;20061;-65
2024/02/21 00:50:17;;;;;;;25.95;15.52;;;;;;;-6.66;61.11;100608.66;5050693;28;20414;-66
2024/02/21 00:52:44;;;;;;;23.17;14.32;;;;;;;-6.37;61.51;100644.31;5050940;28;20084;-65
2024/02/21 00:55:10;;;;;;;25.38;14.88;;;;;;;-6.29;61.12;100632.16;5050924;28;20033;-64
2024/02/21 00:57:36;;;;;;;24.10;13.95;;;;;;;-6.75;60.48;100533.97;5050419;28;20029;-66
2024/02/21 01:00:03;;;;;;;28.17;15.35;;;;;;;-6.21;60.70;100619.16;5050490;28;20109;-67
2024/02/21 01:02:32;;;;;;;22.30;14.30;;;;;;;-6.07;60.36;100630.47;5050056;28;20101;-66
2024/02/21 01:04:58;;;;;;;22.85;14.50;;;;;;;-6.08;60.86;100630.47;5050722;28;20112;-66
2024/02/21 01:07:24;;;;;;;23.70;15.10;;;;;;;-5.98;60.28;100623.47;5049883;28;20132;-66
2024/02/21 01:09:51;;;;;;;28.65;14.85;;;;;;;-6.01;60.25;100607.88;5050651;28;20345;-63
2024/02/21 01:12:16;;;;;;;24.70;15.45;;;;;;;-5.99;60.00;100627.84;5049420;28;20028;-67
2024/02/21 01:14:42;;;;;;;23.30;14.55;;;;;;;-5.96;59.48;100612.19;5050587;28;20033;-66
2024/02/21 01:17:08;;;;;;;25.65;14.75;;;;;;;-5.95;60.27;100606.09;5050321;28;20045;-66
2024/02/21 01:19:34;;;;;;;22.38;14.55;;;;;;;-5.82;59.70;100621.72;5050318;28;20040;-67
2024/02/21 01:21:59;;;;;;;23.77;14.50;;;;;;;-5.84;59.85;100611.31;5050073;28;20025;-64
2024/02/21 01:24:25;;;;;;;26.15;14.40;;;;;;;-5.77;59.58;100612.19;5050121;28;20022;-67
2024/02/21 01:26:50;;;;;;;24.30;14.20;;;;;;;-5.80;59.61;100618.28;5050215;28;20033;-65
2024/02/21 01:29:16;;;;;;;22.50;13.85;;;;;;;-6.11;59.54;100544.44;5049854;28;20044;-67
2024/02/21 01:31:41;;;;;;;25.00;14.63;;;;;;;-5.78;59.63;100603.47;5048996;28;20464;-67
2024/02/21 01:34:07;;;;;;;22.48;14.38;;;;;;;-5.71;59.59;100603.47;5050049;28;20093;-66
2024/02/21 01:36:32;;;;;;;25.48;15.20;;;;;;;-5.71;59.35;100606.97;5050464;28;20509;-66
2024/02/21 01:38:58;;;;;;;23.67;14.50;;;;;;;-5.64;59.23;100608.69;5050051;28;20025;-66
2024/02/21 01:41:24;;;;;;;24.13;14.90;;;;;;;-5.94;59.29;100534.84;5050042;28;20037;-66
2024/02/21 01:43:50;;;;;;;22.13;13.88;;;;;;;-5.57;58.89;100590.41;5050117;28;20033;-67
2024/02/21 01:46:15;;;;;;;27.10;14.88;;;;;;;-5.55;58.81;100589.53;5049221;28;20029;-67
2024/02/21 01:48:41;;;;;;;25.17;14.40;;;;;;;-5.61;59.19;100597.38;5049946;28;20084;-67
2024/02/21 01:51:08;;;;;;;22.95;14.05;;;;;;;-5.49;59.00;100586.06;5049774;28;20053;-67
2024/02/21 01:53:37;;;;;;;25.55;14.25;;;;;;;-5.45;59.23;100587.78;5049773;28;20060;-67
2024/02/21 01:56:05;;;;;;;24.17;14.02;;;;;;;-5.53;59.22;100587.78;5050075;28;20025;-66
2024/02/21 01:58:33;;;;;;;24.65;14.05;;;;;;;-5.49;59.51;100592.13;5049405;28;20025;-60
2024/02/21 02:00:59;;;;;;;22.55;13.98;;;;;;;-5.52;59.42;100566.03;5050106;28;20437;-67
2024/02/21 02:03:25;;;;;;;21.58;13.27;;;;;;;-5.39;59.15;100595.59;5049874;28;20029;-69
2024/02/21 02:05:51;;;;;;;25.38;14.23;;;;;;;-5.36;59.08;100576.47;5049618;28;20071;-69
2024/02/21 02:08:18;;;;;;;26.02;14.55;;;;;;;-5.39;59.30;100572.09;5049556;28;20441;-67
2024/02/21 02:10:45;;;;;;;25.80;13.73;;;;;;;-5.36;58.78;100576.47;5048762;28;20411;-67
2024/02/21 02:13:11;;;;;;;22.65;13.55;;;;;;;-5.66;58.89;100520.88;5049306;28;20034;-66
2024/02/21 02:15:47;;;;;;;25.45;15.02;;;;;;;-5.35;59.53;100555.56;5049581;28;20033;-66
2024/02/21 02:18:14;;;;;;;26.88;14.70;;;;;;;-5.27;59.27;100563.38;5049597;28;20025;-64
2024/02/21 02:20:40;;;;;;;20.85;13.10;;;;;;;-5.53;59.14;100517.34;5049628;28;20037;-67
2024/02/21 02:23:25;;;;;;;22.08;12.68;;;;;;;-5.02;58.55;100570.25;5048287;28;20021;-67
2024/02/21 02:25:52;;;;;;;21.75;13.77;;;;;;;-5.43;58.53;100526.00;5049516;28;20900;-63
2024/02/21 02:28:18;;;;;;;23.42;14.32;;;;;;;-5.30;58.75;100554.69;5049183;28;20077;-62
2024/02/21 02:30:44;;;;;;;26.63;14.73;;;;;;;-5.17;58.91;100568.56;5049499;28;20173;-65
2024/02/21 02:33:09;;;;;;;23.80;14.23;;;;;;;-5.21;59.14;100565.09;5051047;28;20134;-66
2024/02/21 02:35:36;;;;;;;24.08;14.07;;;;;;;-5.10;58.58;100572.88;5053093;28;20036;-65
2024/02/21 02:38:03;;;;;;;24.60;14.80;;;;;;;-5.19;58.96;100561.59;5053376;28;20453;-65
2024/02/21 02:40:29;;;;;;;23.35;13.88;;;;;;;-5.13;58.99;100560.69;5053292;28;20068;-67
2024/02/21 02:42:57;;;;;;;23.83;14.18;;;;;;;-5.07;58.69;100578.94;5052510;28;20059;-65
2024/02/21 02:45:23;;;;;;;24.05;13.77;;;;;;;-5.06;58.77;100578.09;5051816;28;20293;-64
2024/02/21 02:47:49;;;;;;;25.02;14.13;;;;;;;-5.00;58.87;100568.50;5052320;28;20449;-63
2024/02/21 02:50:15;;;;;;;23.83;14.13;;;;;;;-5.24;58.99;100518.13;5052725;28;20039;-64
2024/02/21 02:52:40;;;;;;;22.80;14.02;;;;;;;-4.93;58.45;100558.00;5052497;28;20104;-67
2024/02/21 02:55:07;;;;;;;22.80;13.52;;;;;;;-4.93;58.56;100559.75;5052444;28;20044;-66
2024/02/21 02:57:32;;;;;;;24.23;14.73;;;;;;;-5.01;58.43;100556.31;5052697;28;20029;-65
2024/02/21 02:59:58;;;;;;;25.02;14.32;;;;;;;-4.90;58.54;100570.16;5052594;28;20058;-69
2024/02/21 03:02:24;;;;;;;21.38;13.48;;;;;;;-4.88;58.86;100565.81;5052729;28;20166;-68
2024/02/21 03:04:49;;;;;;;26.48;14.50;;;;;;;-4.84;58.94;100572.75;5052515;28;20029;-66
2024/02/21 03:07:15;;;;;;;22.35;13.63;;;;;;;-4.77;58.93;100573.59;5052627;28;20045;-66
2024/02/21 03:09:44;;;;;;;23.00;14.02;;;;;;;-5.09;58.39;100515.41;5052624;28;20456;-65
2024/02/21 03:12:11;;;;;;;22.70;14.18;;;;;;;-4.74;58.97;100562.25;5051694;28;20085;-65
2024/02/21 03:14:36;;;;;;;24.33;14.82;;;;;;;-4.73;58.60;100577.06;5052399;28;20113;-65
2024/02/21 03:17:03;;;;;;;27.02;14.52;;;;;;;-4.67;58.54;100562.22;5052717;28;20441;-66
2024/02/21 03:19:29;;;;;;;26.13;14.13;;;;;;;-4.76;58.59;100551.81;5052194;28;20044;-66
2024/02/21 03:21:55;;;;;;;22.67;14.48;;;;;;;-4.68;58.50;100554.38;5052144;28;20029;-65
2024/02/21 03:24:21;;;;;;;24.42;14.60;;;;;;;-4.82;58.32;100550.13;5051839;28;20033;-66
2024/02/21 03:26:48;;;;;;;26.60;15.32;;;;;;;-4.84;58.81;100551.84;5051682;28;20045;-65
2024/02/21 03:29:14;;;;;;;22.70;14.80;;;;;;;-4.65;58.69;100564.81;5051792;28;20047;-66
2024/02/21 03:31:40;;;;;;;24.05;15.55;;;;;;;-4.67;58.54;100556.13;5051978;27;20060;-67
2024/02/21 03:34:06;;;;;;;26.10;14.75;;;;;;;-4.74;59.22;100555.28;5051907;28;20558;-63
2024/02/21 03:36:31;;;;;;;27.90;14.95;;;;;;;-4.70;58.45;100566.59;5050757;28;20025;-67
2024/02/21 03:38:57;;;;;;;24.60;14.90;;;;;;;-4.70;59.10;100551.78;5051861;28;20037;-65
2024/02/21 03:41:23;;;;;;;26.83;15.10;;;;;;;-4.49;57.81;100557.75;5051246;28;20025;-66
2024/02/21 03:43:48;;;;;;;25.67;15.40;;;;;;;-4.64;58.11;100556.09;5051484;28;20124;-66
2024/02/21 03:46:14;;;;;;;26.73;15.23;;;;;;;-4.91;58.50;100510.97;5051696;28;20365;-69
2024/02/21 03:48:40;;;;;;;26.80;15.77;;;;;;;-4.66;58.92;100552.63;5052063;28;20068;-67
2024/02/21 03:51:06;;;;;;;25.38;15.48;;;;;;;-4.73;59.11;100541.34;5052113;28;20094;-67
2024/02/21 03:53:32;;;;;;;24.73;14.48;;;;;;;-4.57;58.74;100557.81;5052040;27;20033;-67
2024/02/21 03:56:02;;;;;;;25.17;15.48;;;;;;;-4.67;58.63;100550.91;5051453;28;20047;-67
2024/02/21 03:58:28;;;;;;;26.58;15.70;;;;;;;-4.66;58.70;100558.72;5051768;28;20037;-66
2024/02/21 04:00:54;;;;;;;31.38;15.73;;;;;;;-4.64;58.97;100554.38;5051079;28;20045;-66
2024/02/21 04:03:19;;;;;;;27.10;15.82;;;;;;;-4.54;58.66;100557.78;5051157;28;20040;-67
2024/02/21 04:05:45;;;;;;;27.15;15.45;;;;;;;-4.43;58.11;100559.44;5051800;28;20032;-68
2024/02/21 04:08:11;;;;;;;26.65;16.15;;;;;;;-4.47;58.16;100551.63;5051506;28;20032;-68
2024/02/21 04:10:37;;;;;;;27.92;16.08;;;;;;;-4.64;58.36;100549.13;5050592;28;20460;-67
2024/02/21 04:13:03;;;;;;;27.88;16.45;;;;;;;-4.54;59.16;100552.56;5051509;28;20040;-68
2024/02/21 04:15:29;;;;;;;26.30;15.18;;;;;;;-4.48;58.74;100551.63;5051242;28;20045;-66
2024/02/21 04:17:54;;;;;;;25.88;15.45;;;;;;;-4.45;58.72;100553.38;5051554;28;20043;-67
2024/02/21 04:20:20;;;;;;;26.77;15.75;;;;;;;-4.37;58.81;100559.41;5051254;28;20402;-67
2024/02/21 04:22:46;;;;;;;30.92;15.80;;;;;;;-4.49;58.68;100566.47;5051562;28;20399;-67
2024/02/21 04:25:12;;;;;;;25.90;14.88;;;;;;;-4.43;59.09;100568.19;5050835;28;20100;-67
2024/02/21 04:27:38;;;;;;;24.52;15.77;;;;;;;-4.39;58.37;100555.94;5051669;28;20033;-69
2024/02/21 04:30:05;;;;;;;27.17;15.55;;;;;;;-4.38;58.40;100569.00;5051413;28;20117;-65
2024/02/21 04:32:30;;;;;;;30.35;16.25;;;;;;;-4.32;58.56;100561.09;5051257;28;20093;-65
2024/02/21 04:34:56;;;;;;;25.38;16.05;;;;;;;-4.33;58.69;100566.38;5050454;28;20033;-65
2024/02/21 04:37:21;;;;;;;30.42;15.43;;;;;;;-4.39;58.95;100558.53;5051061;28;20330;-66
2024/02/21 04:39:48;;;;;;;25.90;15.68;;;;;;;-4.69;58.68;100509.13;5049676;28;20072;-64
2024/02/21 04:42:14;;;;;;;28.67;15.73;;;;;;;-4.29;58.26;100560.22;5051137;28;20448;-65
2024/02/21 04:44:40;;;;;;;25.17;13.68;;;;;;;-4.37;58.57;100555.06;5051076;28;20036;-63
2024/02/21 04:47:05;;;;;;;24.63;14.45;;;;;;;-4.30;58.74;100561.13;5051327;28;20093;-69
2024/02/21 04:49:31;;;;;;;24.98;15.52;;;;;;;-4.33;58.90;100563.75;5050108;28;20040;-67
2024/02/21 04:51:56;;;;;;;26.30;15.73;;;;;;;-4.61;58.81;100515.13;5050977;28;20086;-66
2024/02/21 04:54:22;;;;;;;31.40;16.40;;;;;;;-4.22;59.30;100569.75;5050527;28;20055;-66
2024/02/21 04:56:47;;;;;;;27.98;16.30;;;;;;;-4.16;59.32;100557.50;5050017;28;20468;-69
2024/02/21 04:59:13;;;;;;;24.58;15.85;;;;;;;-4.16;58.72;100533.97;5030468;28;20021;-64
2024/02/21 05:01:38;;;;;;;26.80;14.27;;;;;;;-4.19;58.74;100527.88;5031226;28;20117;-66
2024/02/21 05:04:05;;;;;;;24.35;14.75;;;;;;;-4.06;58.88;100560.03;5030897;28;20029;-64
2024/02/21 05:06:30;;;;;;;25.42;15.57;;;;;;;-4.01;58.64;100546.91;5030084;28;20089;-76
2024/02/21 05:08:57;;;;;;;22.98;14.73;;;;;;;-4.24;58.69;100503.53;5041134;28;20124;-76
2024/02/21 05:11:23;;;;;;;27.35;15.57;;;;;;;-3.92;58.61;100552.06;5049880;28;20052;-68
2024/02/21 05:13:49;;;;;;;24.42;15.15;;;;;;;-3.94;58.64;100545.97;5050232;28;20033;-69
2024/02/21 05:16:15;;;;;;;25.92;16.25;;;;;;;-3.87;58.48;100551.16;5050346;28;20123;-72
2024/02/21 05:18:42;;;;;;;26.60;16.10;;;;;;;-3.78;58.29;100553.69;5050773;28;20081;-72
2024/02/21 05:21:08;;;;;;;25.25;15.40;;;;;;;-3.72;58.40;100569.31;5050313;28;20102;-67
2024/02/21 05:23:33;;;;;;;28.27;15.85;;;;;;;-3.73;57.65;100551.91;5049690;28;20422;-74
2024/02/21 05:25:59;;;;;;;23.58;14.77;;;;;;;-3.72;57.84;100543.16;5050160;28;20044;-73
2024/02/21 05:28:24;;;;;;;23.88;15.15;;;;;;;-3.69;57.66;100556.22;5050149;28;20097;-72
2024/02/21 05:30:50;;;;;;;23.33;13.75;;;;;;;-3.59;57.64;100554.38;5049458;28;20035;-71
2024/02/21 05:33:21;;;;;;;24.42;14.38;;;;;;;-3.61;58.13;100550.91;5049808;28;20027;-72
2024/02/21 05:35:50;;;;;;;22.92;15.18;;;;;;;-3.58;57.88;100555.25;5049949;28;20033;-72
2024/02/21 05:38:15;;;;;;;25.80;15.70;;;;;;;-3.62;57.89;100555.28;5049531;28;20048;-72
2024/02/21 05:40:41;;;;;;;25.77;15.70;;;;;;;-3.64;57.52;100537.84;5050262;28;20137;-74
2024/02/21 05:43:10;;;;;;;26.60;15.90;;;;;;;-3.51;57.56;100543.81;5049672;28;20486;-73
2024/02/21 05:45:35;;;;;;;27.52;14.38;;;;;;;-3.40;57.33;100544.56;5049984;28;20036;-74
2024/02/21 05:48:02;;;;;;;26.92;15.38;;;;;;;-3.42;56.96;100541.09;5049481;28;20032;-73
2024/02/21 05:50:28;;;;;;;24.60;15.63;;;;;;;-3.38;57.51;100552.41;5049939;28;20029;-73
2024/02/21 05:52:55;;;;;;;25.48;16.38;;;;;;;-3.38;57.69;100553.25;5049667;28;20137;-72
2024/02/21 05:55:21;;;;;;;27.10;16.40;;;;;;;-3.30;57.01;100555.78;5049592;28;20037;-67
2024/02/21 05:57:47;;;;;;;24.20;14.98;;;;;;;-3.32;57.70;100560.19;5044891;28;20032;-68
2024/02/21 06:00:15;;;;;;;30.10;16.27;;;;;;;-3.29;57.40;100562.75;5042212;28;20032;-64
2024/02/21 06:02:41;;;;;;;25.02;15.60;;;;;;;-3.25;57.28;100545.28;5049912;28;20037;-66
2024/02/21 06:05:08;;;;;;;24.88;15.32;;;;;;;-3.16;56.87;100553.00;5049598;28;20032;-69
2024/02/21 06:07:34;;;;;;;25.65;16.23;;;;;;;-3.13;57.35;100563.47;5049542;28;20375;-69
2024/02/21 06:10:02;;;;;;;24.83;15.40;;;;;;;-3.02;57.09;100560.69;5049721;28;20048;-68
2024/02/21 06:12:30;;;;;;;25.73;16.00;;;;;;;-3.00;56.41;100565.91;5048996;28;20410;-65
2024/02/21 06:14:55;;;;;;;27.48;15.32;;;;;;;-2.98;57.11;100559.78;5049208;28;20152;-68
2024/02/21 06:17:21;;;;;;;27.67;15.18;;;;;;;-2.87;56.27;100549.16;5049381;28;20038;-68
2024/02/21 06:19:46;;;;;;;30.00;15.65;;;;;;;-2.85;56.21;100544.78;5049491;28;20121;-67
2024/02/21 06:22:12;;;;;;;28.70;15.82;;;;;;;-2.73;56.16;100554.22;5050031;28;20463;-67
2024/02/21 06:24:38;;;;;;;25.10;16.05;;;;;;;-2.65;56.17;100554.13;5049458;28;20040;-69
2024/02/21 06:27:05;;;;;;;24.15;15.65;;;;;;;-2.68;56.02;100538.41;5049321;28;20035;-68
2024/02/21 06:29:32;;;;;;;28.15;16.20;;;;;;;-2.51;55.44;100554.75;5048549;28;20334;-69
2024/02/21 06:31:57;;;;;;;23.30;15.40;;;;;;;-2.53;55.55;100551.31;5048853;28;20033;-68
2024/02/21 06:34:24;;;;;;;28.08;15.90;;;;;;;-2.57;55.33;100520.78;5048506;28;20064;-69
2024/02/21 06:36:50;;;;;;;25.17;15.45;;;;;;;-2.40;55.83;100559.84;5049017;27;20475;-63
2024/02/21 06:39:15;;;;;;;24.10;15.15;;;;;;;-2.29;55.45;100545.69;5049517;28;20340;-68
2024/02/21 06:41:41;;;;;;;24.27;15.35;;;;;;;-2.27;55.37;100562.31;5049702;28;20024;-68
2024/02/21 06:44:07;;;;;;;25.73;15.48;;;;;;;-2.26;55.33;100562.25;5049167;28;20538;-67
2024/02/21 06:46:33;;;;;;;29.35;16.58;;;;;;;-2.51;54.75;100509.34;5049228;28;20113;-68
2024/02/21 06:49:08;;;;;;;24.85;15.68;;;;;;;-2.17;55.01;100554.25;5048815;28;20029;-69
2024/02/21 06:51:34;;;;;;;28.95;15.88;;;;;;;-2.00;54.86;100560.13;5049199;28;20132;-69
2024/02/21 06:54:00;;;;;;;24.85;16.70;;;;;;;-2.05;54.35;100533.94;5048477;28;20487;-67
2024/02/21 06:56:29;;;;;;;26.23;16.35;;;;;;;-2.08;54.70;100552.38;5049272;28;20098;-68
2024/02/21 06:58:55;;;;;;;29.55;15.98;;;;;;;-2.13;55.32;100556.81;5049232;28;20037;-67
2024/02/21 07:01:21;;;;;;;27.23;17.33;;;;;;;-2.11;54.98;100529.66;5049049;28;20029;-69
2024/02/21 07:03:46;;;;;;;26.17;15.50;;;;;;;-2.10;54.66;100538.41;5049436;28;20105;-68
2024/02/21 07:06:12;;;;;;;26.52;16.23;;;;;;;-2.02;54.69;100539.13;5048878;28;20040;-70
2024/02/21 07:08:38;;;;;;;24.80;15.23;;;;;;;-1.87;54.09;100551.13;5048621;28;20851;-68
2024/02/21 07:11:04;;;;;;;28.67;16.75;;;;;;;-1.82;54.18;100551.06;5048338;28;20067;-68
2024/02/21 07:13:30;;;;;;;28.98;16.67;;;;;;;-1.77;54.11;100543.94;5048489;28;20061;-68
2024/02/21 07:15:55;;;;;;;26.90;15.23;;;;;;;-2.00;53.86;100500.59;5048478;28;20037;-69
2024/02/21 07:18:21;;;;;;;26.88;16.02;;;;;;;-1.60;53.80;100541.00;5048491;28;20049;-69
2024/02/21 07:20:47;;;;;;;28.23;15.85;;;;;;;-1.60;53.22;100539.25;5052162;28;20032;-69
2024/02/21 07:23:12;;;;;;;26.33;16.45;;;;;;;-1.59;53.61;100535.75;5052245;28;20033;-69
2024/02/21 07:25:39;;;;;;;24.50;15.60;;;;;;;-1.43;54.04;100531.94;5052366;28;20069;-66
2024/02/21 07:28:05;;;;;;;23.10;14.80;;;;;;;-1.19;52.72;100535.88;5038564;28;20021;-59
2024/02/21 07:30:31;;;;;;;22.75;15.25;;;;;;;-1.14;52.52;100534.00;5031132;28;20044;-65
2024/02/21 07:32:56;;;;;;;23.13;13.95;;;;;;;-1.05;52.67;100536.44;5034991;28;20078;-66
2024/02/21 07:35:22;;;;;;;23.40;14.82;;;;;;;-1.05;52.33;100544.31;5051923;28;20037;-67
2024/02/21 07:37:47;;;;;;;28.88;16.73;;;;;;;-1.16;52.30;100538.44;5051981;28;20077;-67
2024/02/21 07:40:14;;;;;;;24.25;15.35;;;;;;;-1.19;52.35;100538.50;5051727;28;20036;-68
2024/02/21 07:42:40;;;;;;;30.83;15.40;;;;;;;-1.05;51.76;100519.81;5051530;28;20176;-67
2024/02/21 07:45:07;;;;;;;27.23;15.55;;;;;;;-0.42;50.83;100545.59;5051812;28;20116;-67
2024/02/21 07:47:33;;;;;;;23.95;15.05;;;;;;;0.61;49.46;100535.97;5051844;28;20104;-65
2024/02/21 07:49:58;;;;;;;23.92;14.60;;;;;;;1.52;46.59;100533.28;5051864;28;20025;-67
2024/02/21 07:52:24;;;;;;;27.10;15.82;;;;;;;1.93;46.01;100530.19;5051337;28;20420;-67
2024/02/21 07:54:50;;;;;;;25.30;15.18;;;;;;;2.00;44.43;100455.09;5040055;28;20051;-59
2024/02/21 07:57:16;;;;;;;22.83;14.77;;;;;;;2.72;43.91;100514.22;5042254;28;20022;-65
2024/02/21 07:59:42;;;;;;;22.13;14.85;;;;;;;3.35;42.85;100512.75;5040771;28;20512;-67
2024/02/21 08:02:08;;;;;;;21.70;14.52;;;;;;;3.97;41.34;100520.81;5043178;28;20033;-67
2024/02/21 08:04:34;;;;;;;25.52;14.32;;;;;;;4.42;40.68;100499.50;5044140;28;20360;-67
2024/02/21 08:07:02;;;;;;;19.90;14.45;;;;;;;4.45;40.54;100510.84;5051713;28;20462;-70
2024/02/21 08:09:28;;;;;;;25.58;15.57;;;;;;;4.42;40.27;100496.84;5050588;28;20043;-68
2024/02/21 08:11:54;;;;;;;23.08;15.02;;;;;;;4.63;39.78;100507.44;5051127;28;20029;-68
2024/02/21 08:14:20;;;;;;;21.90;14.88;;;;;;;4.58;40.20;100504.97;5051378;28;20463;-73
2024/02/21 08:16:46;;;;;;;23.63;15.35;;;;;;;4.52;39.95;100510.56;5048473;28;20025;-73
2024/02/21 08:19:12;;;;;;;22.70;15.65;;;;;;;4.49;39.64;100502.75;5045990;28;20056;-65
2024/02/21 08:21:37;;;;;;;24.17;15.68;;;;;;;4.33;39.30;100519.31;5032738;28;20069;-67
2024/02/21 08:24:03;;;;;;;23.58;15.07;;;;;;;4.13;40.24;100499.00;5046414;28;20525;-68
2024/02/21 08:26:30;;;;;;;22.77;15.65;;;;;;;4.01;40.59;100495.94;5050885;28;20101;-69
2024/02/21 08:29:00;;;;;;;24.70;15.20;;;;;;;3.99;40.37;100518.13;5043437;27;20041;-70
2024/02/21 08:31:31;;;;;;;22.83;16.25;;;;;;;3.82;40.70;100495.84;5029113;28;20033;-68
2024/02/21 08:34:03;;;;;;;23.63;15.68;;;;;;;3.99;40.68;100504.88;5030794;28;20033;-73
2024/02/21 08:36:30;;;;;;;22.58;15.75;;;;;;;3.95;39.76;100517.38;5033475;27;20173;-70
2024/02/21 08:38:56;;;;;;;23.98;15.95;;;;;;;3.80;40.70;100502.16;5043616;28;20475;-70
2024/02/21 08:41:23;;;;;;;25.27;16.02;;;;;;;3.80;40.44;100508.28;5050173;28;20029;-60
2024/02/21 08:43:53;;;;;;;26.52;16.33;;;;;;;3.89;40.70;100504.41;5050811;28;20086;-66
2024/02/21 08:46:20;;;;;;;23.42;15.88;;;;;;;3.90;39.85;100502.63;5048294;28;20353;-65
2024/02/21 08:48:46;;;;;;;23.98;16.58;;;;;;;3.77;39.27;100500.47;5050078;28;20033;-65
2024/02/21 08:51:13;;;;;;;25.02;17.40;;;;;;;3.37;39.95;100512.66;5044970;28;20507;-64
2024/02/21 08:53:39;;;;;;;23.25;16.83;;;;;;;3.03;41.09;100514.88;5049787;27;20081;-67
2024/02/21 08:56:05;;;;;;;28.10;17.63;;;;;;;2.49;42.13;100462.19;5047958;28;20032;-67
2024/02/21 08:58:31;;;;;;;28.00;18.27;;;;;;;2.12;42.75;100497.88;5049086;28;20029;-60
2024/02/21 09:00:56;;;;;;;24.65;16.10;;;;;;;1.75;43.98;100515.81;5048502;28;20037;-65
2024/02/21 09:03:22;;;;;;;25.33;16.60;;;;;;;1.49;44.85;100499.06;5048871;28;20032;-63
2024/02/21 09:05:48;;;;;;;27.98;16.05;;;;;;;1.49;44.96;100504.34;5049048;28;20033;-65
2024/02/21 09:08:14;;;;;;;24.77;16.88;;;;;;;1.48;44.48;100502.63;5049219;28;20075;-66
2024/02/21 09:10:40;;;;;;;27.10;17.30;;;;;;;1.51;44.34;100507.78;5048806;28;20097;-65
2024/02/21 09:13:07;;;;;;;27.95;17.55;;;;;;;1.35;44.64;100511.81;5048523;28;20033;-66
2024/02/21 09:15:33;;;;;;;27.48;16.98;;;;;;;1.29;45.05;100497.03;5049153;28;20029;-64
2024/02/21 09:17:58;;;;;;;26.95;16.73;;;;;;;1.49;44.82;100493.78;5049415;28;20032;-71
2024/02/21 09:20:24;;;;;;;27.02;16.73;;;;;;;1.61;44.81;100494.28;5048132;28;20025;-69
2024/02/21 09:22:49;;;;;;;24.35;16.23;;;;;;;1.83;44.78;100446.94;5049118;28;20025;-70
2024/02/21 09:25:15;;;;;;;29.95;17.70;;;;;;;2.52;43.21;100490.31;5047426;28;20093;-70
2024/02/21 09:27:40;;;;;;;25.88;16.63;;;;;;;2.80;42.92;100484.00;5047953;27;20043;-68
2024/02/21 09:30:06;;;;;;;25.15;16.52;;;;;;;2.80;42.10;100436.38;5048125;28;20458;-68
2024/02/21 09:32:32;;;;;;;23.30;16.25;;;;;;;3.19;41.83;100485.16;5048583;28;20036;-63
2024/02/21 09:34:58;;;;;;;26.23;16.73;;;;;;;3.24;40.59;100462.88;5037301;28;20044;-72
2024/02/21 09:37:24;;;;;;;25.20;17.15;;;;;;;3.08;41.33;100475.00;5048910;27;20093;-73
2024/02/21 09:39:52;;;;;;;28.92;17.20;;;;;;;2.96;42.76;100474.56;5048497;28;20433;-71
2024/02/21 09:42:20;;;;;;;24.10;16.30;;;;;;;2.97;41.50;100478.03;5047838;28;20081;-73
2024/02/21 09:44:46;;;;;;;27.23;16.95;;;;;;;2.86;41.91;100474.03;5048026;28;20053;-69
2024/02/21 09:47:24;;;;;;;26.17;16.77;;;;;;;2.69;42.16;100465.88;5044942;27;20413;-73
2024/02/21 09:49:51;;;;;;;28.65;16.92;;;;;;;2.42;42.56;100474.78;5049444;27;20060;-71
2024/02/21 09:52:20;;;;;;;25.23;14.25;;;;;;;2.44;42.36;100477.38;5049377;27;20053;-68
2024/02/21 09:54:48;;;;;;;24.85;16.25;;;;;;;1.72;43.03;100440.22;5049154;28;20041;-70
2024/02/21 09:57:15;;;;;;;24.92;16.58;;;;;;;1.47;43.80;100429.63;5048052;28;20421;-66
2024/02/21 09:59:41;;;;;;;28.17;16.52;;;;;;;1.70;44.26;100465.81;5031064;28;20118;-71
2024/02/21 10:02:07;;;;;;;25.38;16.73;;;;;;;1.58;43.84;100460.94;5011428;28;20021;-66
2024/02/21 10:04:33;;;;;;;23.65;15.98;;;;;;;1.57;44.29;100482.97;5027230;28;20041;-67
2024/02/21 10:06:59;;;;;;;24.08;15.68;;;;;;;1.32;44.38;100491.66;5027181;28;20037;-67
2024/02/21 10:09:29;;;;;;;26.38;16.83;;;;;;;1.04;45.24;100486.41;5041972;28;20441;-67
2024/02/21 10:11:56;;;;;;;24.50;15.68;;;;;;;0.81;45.55;100465.06;5047204;28;20052;-67
2024/02/21 10:14:22;;;;;;;23.73;15.48;;;;;;;0.83;46.06;100480.84;5047059;28;20045;-67
2024/02/21 10:16:48;;;;;;;25.80;15.65;;;;;;;0.89;45.33;100482.44;5047137;28;20182;-67
2024/02/21 10:19:20;;;;;;;24.95;16.30;;;;;;;0.83;46.28;100470.31;5121420;27;20027;-67
2024/02/21 10:22:10;;;;;;;25.80;15.63;;;;;;;0.97;45.93;100472.53;5133207;27;20438;-67
2024/02/21 10:24:41;;;;;;;25.15;15.52;;;;;;;0.81;45.41;100469.50;5133372;27;20027;-66
2024/02/21 10:27:08;;;;;;;24.88;15.65;;;;;;;0.55;46.86;100465.84;5132745;27;20019;-67
2024/02/21 10:29:35;;;;;;;25.38;15.43;;;;;;;0.46;46.78;100460.81;5090484;27;20125;-67
2024/02/21 10:32:11;;;;;;;22.77;15.65;;;;;;;0.61;47.05;100470.94;5031871;28;20021;-67
2024/02/21 10:34:38;;;;;;;25.77;15.43;;;;;;;0.43;46.61;100460.00;5027772;28;20021;-66
2024/02/21 10:37:06;;;;;;;24.35;14.93;;;;;;;0.71;46.38;100475.00;5032309;28;20021;-67
2024/02/21 10:39:33;;;;;;;22.77;14.07;;;;;;;0.54;46.53;100469.38;5048671;28;20108;-65
2024/02/21 10:42:07;;;;;;;26.15;15.65;;;;;;;0.53;46.57;100471.16;5048342;28;20445;-66
2024/02/21 10:44:36;;;;;;;22.33;14.15;;;;;;;0.27;47.24;100445.56;5048606;28;20029;-67
2024/02/21 10:47:07;;;;;;;24.58;14.13;;;;;;;0.23;47.29;100460.56;5048517;28;20443;-66
2024/02/21 10:49:39;;;;;;;21.45;13.73;;;;;;;0.21;47.45;100453.59;5048046;28;20085;-66
2024/02/21 10:52:23;;;;;;;21.60;14.48;;;;;;;0.35;47.64;100453.22;5048557;28;20060;-66
2024/02/21 10:54:56;;;;;;;24.35;14.25;;;;;;;0.48;47.41;100459.00;5050798;28;20476;-75
2024/02/21 10:57:24;;;;;;;24.80;14.70;;;;;;;0.43;47.26;100452.09;5050975;28;20025;-75
2024/02/21 10:59:50;;;;;;;23.45;14.52;;;;;;;0.41;47.06;100455.72;5051779;28;20037;-76
2024/02/21 11:02:17;;;;;;;22.38;14.05;;;;;;;0.33;47.87;100463.81;5051766;28;20029;-75
2024/02/21 11:04:44;;;;;;;21.38;11.82;;;;;;;0.42;47.49;100458.28;5050071;28;20470;-77
2024/02/21 11:07:09;;;;;;;19.88;14.13;;;;;;;0.28;47.97;100460.44;5051235;28;20113;-76
2024/02/21 11:09:35;;;;;;;21.63;13.63;;;;;;;0.05;48.20;100437.38;5051911;28;20025;-78